Time;durP1;ratioP1;P1;durP2;ratioP2;P2;SDS_P1;SDS_P2;PMS_P1;PMS_P2;Temp;Humidity;BMP_temperature;BMP_pressure;BME280_temperature;BME280_humidity;BME280_pressure;Samples;Min_cycle;Max_cycle;Signal;HPM_P1;HPM_P2
2021/10/29 00:00:52;;;;;;;78.00;43.57;;;;;;;6.55;64.76;101680.67;127291;1101;101037;-78
2021/10/29 00:03:20;;;;;;;83.23;43.00;;;;;;;6.56;64.48;101685.06;127326;1101;103008;-78
2021/10/29 00:05:48;;;;;;;79.87;42.80;;;;;;;6.54;65.09;101676.23;127321;1101;101740;-78
2021/10/29 00:08:16;;;;;;;82.37;44.13;;;;;;;6.51;65.45;101687.34;127174;1100;101572;-77
2021/10/29 00:10:44;;;;;;;79.17;44.53;;;;;;;6.48;65.22;101682.84;127327;1101;101523;-79
2021/10/29 00:13:12;;;;;;;76.33;43.27;;;;;;;6.46;65.45;101678.30;127334;1101;101566;-78
2021/10/29 00:15:40;;;;;;;81.47;42.87;;;;;;;6.43;65.36;101673.77;127351;1101;101920;-78
2021/10/29 00:18:08;;;;;;;82.47;42.13;;;;;;;6.42;65.51;101674.58;126257;1102;101943;-78
2021/10/29 00:20:36;;;;;;;77.27;41.50;;;;;;;6.43;65.94;101678.08;126387;1102;101574;-78
2021/10/29 00:23:04;;;;;;;78.33;40.00;;;;;;;6.43;65.78;101670.27;126326;1102;101623;-78
2021/10/29 00:25:32;;;;;;;76.93;42.00;;;;;;;6.43;65.81;101686.80;127369;1101;101610;-78
2021/10/29 00:28:00;;;;;;;77.87;40.13;;;;;;;6.44;65.39;101674.69;127368;1101;103076;-78
2021/10/29 00:30:28;;;;;;;84.50;43.57;;;;;;;6.39;66.03;101674.36;126202;1101;109487;-78
2021/10/29 00:32:56;;;;;;;81.77;42.50;;;;;;;6.36;66.18;101674.14;127312;1100;101967;-78
2021/10/29 00:35:24;;;;;;;77.97;43.13;;;;;;;6.35;66.02;101671.42;127411;1101;101520;-78
2021/10/29 00:37:51;;;;;;;83.27;41.07;;;;;;;6.33;65.99;101668.70;127358;1101;101406;-78
2021/10/29 00:40:19;;;;;;;77.90;39.87;;;;;;;6.34;65.83;101667.89;127203;1101;101957;-78
2021/10/29 00:42:47;;;;;;;82.67;40.60;;;;;;;6.34;65.90;101672.21;127324;1101;101254;-79
2021/10/29 00:45:15;;;;;;;77.07;40.97;;;;;;;6.32;66.30;101664.28;127354;1101;101503;-78
2021/10/29 00:47:43;;;;;;;79.77;41.47;;;;;;;6.30;65.84;101660.67;127368;1101;101956;-78
2021/10/29 00:50:12;;;;;;;73.03;41.43;;;;;;;6.28;65.68;101663.16;127220;1101;101547;-78
2021/10/29 00:52:40;;;;;;;79.63;43.53;;;;;;;6.26;66.29;101661.23;126368;1102;101940;-78
2021/10/29 00:55:09;;;;;;;86.40;42.53;;;;;;;6.23;66.69;101661.02;127283;1101;101304;-77
2021/10/29 00:57:40;;;;;;;75.27;40.63;;;;;;;6.23;66.48;101653.20;127417;1101;101900;-78
2021/10/29 01:00:10;;;;;;;77.57;41.23;;;;;;;6.20;66.46;101651.30;127157;1101;101491;-78
2021/10/29 01:02:39;;;;;;;76.63;39.30;;;;;;;6.18;66.50;101654.58;127377;1101;101560;-79
2021/10/29 01:05:08;;;;;;;77.03;39.90;;;;;;;6.16;66.07;101645.75;127349;1101;102966;-78
2021/10/29 01:07:37;;;;;;;81.33;40.90;;;;;;;6.17;66.26;101643.26;127293;1101;101538;-78
2021/10/29 01:10:07;;;;;;;79.43;39.83;;;;;;;6.18;66.39;101638.94;127162;1101;101616;-78
2021/10/29 01:12:36;;;;;;;80.63;40.87;;;;;;;6.20;66.21;101637.34;127328;1101;101572;-78
2021/10/29 01:15:09;;;;;;;74.03;41.10;;;;;;;6.26;66.26;101637.77;127374;1102;101585;-78
2021/10/29 01:17:40;;;;;;;77.40;41.00;;;;;;;6.29;65.94;101643.20;126380;1102;102930;-78
2021/10/29 01:20:11;;;;;;;83.23;41.57;;;;;;;6.29;66.00;101638.92;127207;1101;102383;-78
2021/10/29 01:22:43;;;;;;;79.93;44.70;;;;;;;6.29;65.96;101644.14;127281;1101;101477;-78
2021/10/29 01:25:15;;;;;;;80.03;43.78;;;;;;;6.30;66.31;101639.81;127327;1101;101595;-78
2021/10/29 01:27:43;;;;;;;78.20;43.50;;;;;;;6.27;66.04;101642.20;127415;1101;101578;-78
2021/10/29 01:30:13;;;;;;;76.00;41.47;;;;;;;6.24;66.38;101641.98;127188;1101;101920;-78
2021/10/29 01:32:42;;;;;;;76.87;39.83;;;;;;;6.18;66.17;101645.05;126222;1101;101625;-78
2021/10/29 01:35:12;;;;;;;76.27;40.97;;;;;;;6.14;66.05;101639.50;127268;1101;101600;-78
2021/10/29 01:37:41;;;;;;;77.80;37.90;;;;;;;6.10;66.53;101635.78;127298;1101;101641;-77
2021/10/29 01:40:13;;;;;;;75.20;38.40;;;;;;;6.10;65.98;101641.89;127207;1102;101534;-78
2021/10/29 01:42:41;;;;;;;77.03;39.60;;;;;;;6.13;66.66;101641.22;127422;1101;103124;-78
2021/10/29 01:45:10;;;;;;;70.77;38.67;;;;;;;6.16;66.13;101644.04;127326;1101;101798;-78
2021/10/29 01:47:38;;;;;;;73.40;38.47;;;;;;;6.16;66.28;101641.44;127310;1101;101863;-78
2021/10/29 01:50:07;;;;;;;75.73;42.60;;;;;;;6.14;66.67;101653.46;127223;1101;101615;-78
2021/10/29 01:52:36;;;;;;;77.20;40.67;;;;;;;6.08;66.40;101648.70;127324;1100;101993;-78
2021/10/29 01:55:05;;;;;;;76.67;42.23;;;;;;;6.04;66.34;101656.19;127407;1101;101964;-77
2021/10/29 01:57:33;;;;;;;75.63;40.50;;;;;;;6.02;66.85;101661.28;126251;1102;101628;-78
2021/10/29 02:00:01;;;;;;;82.10;43.67;;;;;;;6.00;66.06;101661.95;127317;1101;101981;-78
2021/10/29 02:02:29;;;;;;;73.20;40.10;;;;;;;6.03;66.52;101664.78;127355;1101;112414;-78
2021/10/29 02:04:57;;;;;;;74.20;39.00;;;;;;;6.02;66.76;101666.50;127399;1101;101548;-78
2021/10/29 02:07:25;;;;;;;65.73;35.63;;;;;;;5.96;67.41;101666.02;127310;1101;101979;-77
2021/10/29 02:09:52;;;;;;;70.83;36.90;;;;;;;5.91;67.15;101670.00;126307;1102;101839;-78
2021/10/29 02:12:20;;;;;;;64.07;33.90;;;;;;;5.87;67.66;101676.66;126300;1102;101689;-78
2021/10/29 02:14:48;;;;;;;69.30;33.80;;;;;;;5.84;67.73;101675.53;127398;1101;101512;-78
2021/10/29 02:17:16;;;;;;;62.53;32.27;;;;;;;5.81;67.42;101672.70;127397;1101;101537;-78
2021/10/29 02:19:44;;;;;;;65.23;35.17;;;;;;;5.75;67.43;101671.47;127374;1100;103036;-78
2021/10/29 02:22:12;;;;;;;63.93;33.60;;;;;;;5.72;67.97;101670.34;127200;1101;102763;-78
2021/10/29 02:24:40;;;;;;;66.23;33.50;;;;;;;5.69;67.87;101671.02;127340;1101;101616;-79
2021/10/29 02:27:08;;;;;;;66.53;33.23;;;;;;;5.66;67.62;101667.29;127377;1101;101880;-78
2021/10/29 02:29:36;;;;;;;62.33;31.17;;;;;;;5.67;67.72;101671.68;127288;1101;101033;-78
2021/10/29 02:32:05;;;;;;;62.63;32.00;;;;;;;5.69;67.89;101673.62;127282;1101;101966;-77
2021/10/29 02:34:33;;;;;;;57.50;32.17;;;;;;;5.70;67.56;101674.52;127367;1101;102221;-78
2021/10/29 02:37:01;;;;;;;59.87;31.93;;;;;;;5.68;67.78;101676.11;127324;1101;101521;-78
2021/10/29 02:39:29;;;;;;;66.40;33.30;;;;;;;5.68;67.77;101670.91;127331;1101;101590;-78
2021/10/29 02:42:01;;;;;;;60.10;32.93;;;;;;;5.67;67.81;101682.09;126357;1101;101532;-77
2021/10/29 02:44:29;;;;;;;58.60;32.80;;;;;;;5.62;67.59;101675.66;127381;1100;103057;-77
2021/10/29 02:46:57;;;;;;;65.63;33.87;;;;;;;5.56;67.61;101678.69;127276;1101;101767;-78
2021/10/29 02:49:25;;;;;;;71.87;36.70;;;;;;;5.52;67.61;101684.48;127298;1100;101648;-78
2021/10/29 02:51:55;;;;;;;67.00;34.73;;;;;;;5.47;67.83;101681.53;127253;1101;101363;-77
2021/10/29 02:54:25;;;;;;;62.53;35.03;;;;;;;5.43;68.05;101676.88;126371;1102;101615;-77
2021/10/29 02:56:58;;;;;;;68.67;34.85;;;;;;;5.39;67.91;101672.22;126308;1102;102781;-78
2021/10/29 02:59:26;;;;;;;63.43;34.50;;;;;;;5.40;68.05;101679.25;126352;1102;101660;-78
2021/10/29 03:01:54;;;;;;;62.93;33.27;;;;;;;5.39;67.66;101682.62;127176;1101;101542;-78
2021/10/29 03:04:24;;;;;;;66.17;34.97;;;;;;;5.39;67.74;101675.75;127335;1101;101579;-77
2021/10/29 03:06:55;;;;;;;68.97;36.13;;;;;;;5.39;68.24;101678.35;127311;1101;101600;-78
2021/10/29 03:09:28;;;;;;;70.93;36.33;;;;;;;5.38;67.97;101676.53;126351;1105;102517;-78
2021/10/29 03:12:00;;;;;;;68.80;35.83;;;;;;;5.37;67.81;101682.52;126267;1102;101600;-78
2021/10/29 03:14:30;;;;;;;63.33;36.37;;;;;;;5.36;67.90;101672.92;126352;1102;101607;-77
2021/10/29 03:17:01;;;;;;;69.10;37.97;;;;;;;5.35;67.82;101678.00;127296;1101;101523;-78
2021/10/29 03:19:34;;;;;;;69.07;34.93;;;;;;;5.31;67.62;101674.24;127395;1101;101497;-78
2021/10/29 03:22:05;;;;;;;;;;;;;;;5.31;67.78;101683.76;126554;1102;103562;-79
2021/10/29 03:24:37;;;;;;;69.30;34.73;;;;;;;5.36;67.84;101683.33;127325;1101;101346;-78
2021/10/29 03:27:10;;;;;;;62.73;33.60;;;;;;;5.39;67.88;101680.95;127378;1101;101607;-77
2021/10/29 03:29:43;;;;;;;66.00;35.87;;;;;;;5.40;68.24;101684.45;127282;1099;101602;-78
2021/10/29 03:32:18;;;;;;;66.43;35.57;;;;;;;5.36;68.47;101685.00;127203;1101;101571;-77
2021/10/29 03:34:50;;;;;;;67.67;36.37;;;;;;;5.30;68.42;101690.67;127313;1101;103079;-79
2021/10/29 03:37:36;;;;;;;69.70;35.73;;;;;;;5.26;68.02;101686.02;126312;1102;101846;-79
2021/10/29 03:40:15;;;;;;;64.40;35.10;;;;;;;5.21;68.12;101687.37;126354;1102;101543;-78
2021/10/29 03:42:49;;;;;;;67.50;35.33;;;;;;;5.15;67.91;101694.70;127254;1101;101368;-78
2021/10/29 03:45:19;;;;;;;65.55;36.38;;;;;;;5.10;68.21;101696.95;127406;1101;101581;-78
2021/10/29 03:47:51;;;;;;;66.87;35.57;;;;;;;5.06;68.21;101694.00;127368;1101;103114;-78
2021/10/29 03:50:24;;;;;;;73.63;35.83;;;;;;;5.01;68.35;101697.14;127256;1101;101534;-78
2021/10/29 03:52:57;;;;;;;75.43;37.23;;;;;;;4.99;68.36;101696.12;127229;1102;101545;-78
2021/10/29 03:55:32;;;;;;;78.73;36.80;;;;;;;5.01;68.17;101699.73;127338;1101;101528;-79
2021/10/29 03:58:04;;;;;;;71.43;36.67;;;;;;;5.03;68.83;101697.25;126324;1102;101545;-78
2021/10/29 04:00:34;;;;;;;72.93;35.37;;;;;;;5.03;68.69;101697.25;127309;1101;101914;-78
2021/10/29 04:03:04;;;;;;;63.07;35.23;;;;;;;5.01;68.58;101698.84;126284;1105;101450;-78
2021/10/29 04:05:36;;;;;;;74.10;37.63;;;;;;;5.01;68.53;101696.24;126344;1102;101576;-78
2021/10/29 04:08:04;;;;;;;69.03;36.73;;;;;;;5.00;68.76;101697.02;127372;1101;101596;-78
2021/10/29 04:10:33;;;;;;;70.03;34.10;;;;;;;4.99;68.46;101700.44;127353;1101;101529;-78
2021/10/29 04:13:02;;;;;;;69.77;35.37;;;;;;;4.97;68.55;101700.31;127202;1101;101912;-78
2021/10/29 04:15:30;;;;;;;66.80;35.80;;;;;;;4.95;68.50;101696.66;127304;1100;101552;-77
2021/10/29 04:17:58;;;;;;;63.03;34.87;;;;;;;4.95;68.50;101699.27;127356;1101;101620;-78
2021/10/29 04:20:26;;;;;;;62.50;34.60;;;;;;;4.93;68.83;101703.45;127347;1101;101929;-78
2021/10/29 04:22:54;;;;;;;66.90;35.57;;;;;;;4.91;69.21;101706.71;127407;1101;101534;-79
2021/10/29 04:25:22;;;;;;;68.73;35.57;;;;;;;4.92;68.85;101711.14;127316;1101;101951;-79
2021/10/29 04:27:57;;;;;;;71.87;36.70;;;;;;;4.91;68.55;101702.44;127267;1101;101831;-79
2021/10/29 04:30:27;;;;;;;70.50;37.33;;;;;;;4.92;68.87;101706.83;126399;1102;101648;-78
2021/10/29 04:32:59;;;;;;;65.93;37.00;;;;;;;4.89;68.94;101701.39;126317;1102;101435;-79
2021/10/29 04:35:35;;;;;;;74.50;36.03;;;;;;;4.94;68.94;101709.55;126323;1104;101400;-78
2021/10/29 04:38:04;;;;;;;71.07;35.53;;;;;;;4.95;69.87;101709.67;127252;1101;103157;-79
2021/10/29 04:40:34;;;;;;;67.50;35.17;;;;;;;4.98;69.45;101719.42;126334;1102;101736;-79
2021/10/29 04:43:07;;;;;;;65.60;33.60;;;;;;;4.97;69.07;101702.91;126333;1102;101673;-80
2021/10/29 04:45:35;;;;;;;63.83;33.83;;;;;;;4.98;69.34;101714.22;127204;1101;113288;-80
2021/10/29 04:48:03;;;;;;;73.53;35.63;;;;;;;4.97;69.47;101718.52;127197;1101;101552;-79
2021/10/29 04:50:32;;;;;;;69.57;36.43;;;;;;;5.00;69.22;101721.36;126354;1101;102002;-79
2021/10/29 04:53:00;;;;;;;67.67;34.80;;;;;;;5.00;69.01;101716.16;126911;1101;101742;-80
2021/10/29 04:55:28;;;;;;;65.43;35.47;;;;;;;5.01;69.03;101724.86;126883;1101;101529;-80
2021/10/29 04:57:56;;;;;;;66.27;35.40;;;;;;;5.02;68.44;101726.69;127193;1101;101672;-80
2021/10/29 05:00:26;;;;;;;68.90;35.00;;;;;;;5.04;69.20;101736.40;127192;1100;101085;-80
2021/10/29 05:02:55;;;;;;;70.07;34.37;;;;;;;5.06;69.60;101728.72;127192;1101;101923;-80
2021/10/29 05:05:23;;;;;;;67.97;34.93;;;;;;;5.09;69.28;101728.95;126315;1101;101687;-80
2021/10/29 05:07:52;;;;;;;69.73;33.07;;;;;;;5.07;70.04;101734.84;127015;1101;101687;-78
2021/10/29 05:10:20;;;;;;;60.00;32.27;;;;;;;5.06;69.53;101738.22;127141;1101;101587;-79
2021/10/29 05:12:48;;;;;;;67.23;32.13;;;;;;;5.05;70.22;101734.73;127267;1101;101355;-79
2021/10/29 05:15:17;;;;;;;69.40;32.80;;;;;;;5.06;69.67;101740.83;126795;1101;101938;-79
2021/10/29 05:17:45;;;;;;;67.33;31.83;;;;;;;5.13;69.85;101749.23;126916;1101;101672;-79
2021/10/29 05:20:15;;;;;;;61.43;32.77;;;;;;;5.15;69.40;101754.55;126872;1101;101178;-79
2021/10/29 05:22:46;;;;;;;64.77;33.70;;;;;;;5.21;69.71;101742.91;126311;1102;101740;-78
2021/10/29 05:25:21;;;;;;;65.63;32.43;;;;;;;5.29;69.52;101753.91;126322;1102;102267;-78
2021/10/29 05:27:56;;;;;;;70.10;34.73;;;;;;;5.31;69.23;101752.33;126471;1102;101955;-78
2021/10/29 05:30:27;;;;;;;66.33;33.57;;;;;;;5.34;70.10;101749.95;126551;1100;101651;-79
2021/10/29 05:33:01;;;;;;;78.47;34.37;;;;;;;5.39;69.56;101746.03;126371;1102;101766;-79
2021/10/29 05:35:32;;;;;;;74.73;35.53;;;;;;;5.42;69.80;101753.15;126788;1100;102954;-80
2021/10/29 05:38:05;;;;;;;61.07;33.17;;;;;;;5.44;69.99;101754.20;126336;1102;101199;-77
2021/10/29 05:40:35;;;;;;;68.57;33.80;;;;;;;5.48;69.82;101770.95;126317;1102;102679;-79
2021/10/29 05:43:05;;;;;;;65.73;35.67;;;;;;;5.48;69.62;101761.43;126296;1102;101919;-78
2021/10/29 05:45:36;;;;;;;70.00;35.60;;;;;;;5.46;69.41;101763.02;126740;1101;101882;-77
2021/10/29 05:48:19;;;;;;;65.10;35.47;;;;;;;5.50;69.62;101769.36;126224;1102;101770;-78
2021/10/29 05:50:51;;;;;;;70.37;36.07;;;;;;;5.54;69.86;101774.91;126862;1101;101553;-77
2021/10/29 05:53:35;;;;;;;72.53;34.67;;;;;;;5.64;69.30;101770.41;126326;1102;102670;-78
2021/10/29 05:56:07;;;;;;;67.40;34.07;;;;;;;5.68;69.64;101768.16;126813;1101;101844;-77
2021/10/29 05:58:37;;;;;;;71.63;35.47;;;;;;;5.73;70.05;101779.84;126362;1102;101672;-77
2021/10/29 06:01:07;;;;;;;72.40;35.80;;;;;;;5.78;69.74;101776.66;126323;1103;101695;-76
2021/10/29 06:03:39;;;;;;;71.60;35.10;;;;;;;5.82;69.88;101776.12;126343;1101;101269;-76
2021/10/29 06:06:13;;;;;;;70.00;35.30;;;;;;;5.90;69.72;101778.48;126316;1102;101931;-79
2021/10/29 06:08:45;;;;;;;68.33;34.33;;;;;;;5.98;69.65;101772.98;126881;1101;101264;-78
2021/10/29 06:11:15;;;;;;;71.23;35.03;;;;;;;6.05;69.62;101780.48;126807;1101;101558;-78
2021/10/29 06:13:47;;;;;;;73.97;35.37;;;;;;;6.14;69.66;101778.56;126732;1101;101696;-77
2021/10/29 06:16:18;;;;;;;70.50;35.90;;;;;;;6.25;69.90;101781.95;126530;1102;101534;-79
2021/10/29 06:18:49;;;;;;;72.43;35.17;;;;;;;6.35;69.56;101786.14;126315;1102;103720;-77
2021/10/29 06:21:31;;;;;;;76.00;36.83;;;;;;;6.41;69.69;101787.48;126741;1101;101619;-77
2021/10/29 06:24:02;;;;;;;64.63;34.77;;;;;;;6.49;69.66;101785.44;126871;1101;101675;-78
2021/10/29 06:26:41;;;;;;;71.27;37.73;;;;;;;6.55;69.46;101790.20;126332;1102;101766;-78
2021/10/29 06:29:14;;;;;;;70.67;34.97;;;;;;;6.63;69.46;101789.05;126330;1102;101569;-78
2021/10/29 06:31:45;;;;;;;64.17;35.87;;;;;;;6.70;69.46;101790.38;126322;1102;102777;-77
2021/10/29 06:34:15;;;;;;;72.30;36.50;;;;;;;6.77;69.74;101793.55;126928;1101;101616;-76
2021/10/29 06:36:47;;;;;;;69.63;36.73;;;;;;;6.84;69.61;101787.98;126284;1102;101868;-77
2021/10/29 06:39:19;;;;;;;73.40;37.27;;;;;;;6.95;69.58;101800.86;126278;1105;101780;-76
2021/10/29 06:41:52;;;;;;;74.93;36.30;;;;;;;7.00;69.34;101796.90;126326;1105;101864;-77
2021/10/29 06:44:27;;;;;;;;;;;;;;;7.02;69.02;101797.91;126309;1105;102818;-77
2021/10/29 06:52:36;;;;;;;69.27;34.83;;;;;;;7.18;69.30;101803.42;126296;1102;101265;-77
2021/10/29 07:00:38;;;;;;;64.70;32.30;;;;;;;7.40;69.03;101806.61;126255;1105;101976;-78
2021/10/29 07:41:09;;;;;;;75.53;38.13;;;;;;;8.88;68.66;101798.09;126249;1105;101663;-77
2021/10/29 07:43:46;;;;;;;76.23;37.10;;;;;;;8.91;68.72;101801.83;126325;1102;101799;-78
2021/10/29 07:46:20;;;;;;;74.17;39.60;;;;;;;8.96;68.29;101800.40;126284;1102;101634;-78
2021/10/29 07:48:52;;;;;;;68.78;35.98;;;;;;;9.00;68.21;101805.00;126666;1102;101350;-78
2021/10/29 07:51:25;;;;;;;75.70;36.87;;;;;;;9.01;68.55;101803.31;126332;1102;102003;-78
2021/10/29 07:53:55;;;;;;;;;;;;;;;9.01;68.02;101811.16;126290;1102;101681;-79
2021/10/29 07:56:23;;;;;;;77.27;35.63;;;;;;;8.99;67.72;101803.21;126745;1100;101651;-78
2021/10/29 07:58:59;;;;;;;74.83;36.10;;;;;;;9.02;67.79;101804.20;126220;1105;102318;-79
2021/10/29 08:01:31;;;;;;;73.00;37.03;;;;;;;9.05;67.91;101800.05;126297;1105;101227;-78
2021/10/29 08:04:06;;;;;;;85.55;37.55;;;;;;;9.07;67.71;101803.69;126298;1105;101911;-79
2021/10/29 08:06:39;;;;;;;83.55;40.23;;;;;;;9.14;68.26;101807.59;126267;1105;101814;-79
2021/10/29 08:09:12;;;;;;;90.95;42.23;;;;;;;9.19;68.04;101806.15;126292;1105;102047;-79
2021/10/29 08:11:43;;;;;;;90.70;42.87;;;;;;;9.23;67.49;101809.89;126264;1104;101588;-79
2021/10/29 08:14:17;;;;;;;73.73;38.20;;;;;;;9.27;67.52;101810.17;126346;1105;101592;-78
2021/10/29 08:16:51;;;;;;;78.33;39.47;;;;;;;9.31;68.06;101809.53;126317;1105;102246;-80
2021/10/29 08:19:27;;;;;;;76.57;37.87;;;;;;;9.38;67.92;101805.59;126228;1105;101914;-79
2021/10/29 08:22:01;;;;;;;67.20;35.33;;;;;;;9.43;67.92;101809.39;126243;1105;101702;-80
2021/10/29 08:24:38;;;;;;;77.13;35.23;;;;;;;9.48;67.29;101805.33;126259;1105;101589;-80
2021/10/29 08:27:12;;;;;;;76.27;35.07;;;;;;;9.59;67.88;101799.84;126275;1105;101773;-81
2021/10/29 08:29:45;;;;;;;68.67;34.00;;;;;;;9.67;67.22;101803.83;126272;1102;104854;-83
2021/10/29 08:32:17;;;;;;;;;;;;;;;9.77;67.69;101810.52;126287;1102;102277;-81
2021/10/29 08:34:48;;;;;;;71.33;34.83;;;;;;;9.87;67.62;101803.30;126713;1102;101600;-80
2021/10/29 08:37:20;;;;;;;66.63;33.63;;;;;;;9.95;67.41;101802.85;126286;1102;101354;-81
2021/10/29 08:39:54;;;;;;;70.23;33.67;;;;;;;10.02;67.55;101805.93;126356;1102;101675;-80
2021/10/29 08:42:27;;;;;;;63.87;34.23;;;;;;;10.12;67.32;101815.23;126351;1105;102757;-79
2021/10/29 08:45:01;;;;;;;66.87;33.73;;;;;;;10.21;67.56;101812.25;126940;1102;101678;-78
2021/10/29 08:47:35;;;;;;;66.30;33.53;;;;;;;10.29;66.87;101810.97;125929;1105;101864;-79
2021/10/29 08:50:11;;;;;;;60.53;31.37;;;;;;;10.32;66.80;101808.52;125891;1109;101629;-80
2021/10/29 08:52:47;;;;;;;65.33;32.27;;;;;;;10.38;67.22;101815.89;125999;1105;101198;-81
2021/10/29 08:55:26;;;;;;;64.57;32.70;;;;;;;10.43;66.54;101820.56;125876;1109;102061;-78
2021/10/29 08:58:00;;;;;;;59.17;31.87;;;;;;;10.52;66.75;101811.43;125867;1105;102185;-79
2021/10/29 09:00:39;;;;;;;60.67;32.40;;;;;;;10.61;66.97;101812.84;125914;1105;101675;-79
2021/10/29 09:06:16;;;;;;;65.93;32.87;;;;;;;10.90;66.74;101817.91;126307;1105;101868;-79
2021/10/29 09:09:14;;;;;;;66.00;34.60;;;;;;;11.02;66.61;101813.34;126273;1105;102112;-79
2021/10/29 09:12:00;;;;;;;60.43;30.20;;;;;;;11.11;66.50;101815.55;126282;1105;101858;-80
2021/10/29 09:17:48;;;;;;;58.87;30.50;;;;;;;11.23;66.34;101812.69;126249;1105;101758;-80
2021/10/29 09:31:30;;;;;;;52.60;28.03;;;;;;;11.49;66.02;101798.31;126208;1105;113147;-81
2021/10/29 09:34:10;;;;;;;56.17;27.10;;;;;;;11.55;66.10;101803.90;126875;1101;101645;-80
2021/10/29 09:36:54;;;;;;;49.17;25.57;;;;;;;11.63;66.06;101804.30;126311;1102;104075;-80
2021/10/29 09:39:38;;;;;;;52.37;26.83;;;;;;;11.71;65.79;101795.08;126674;1101;102111;-80
2021/10/29 09:42:36;;;;;;;57.90;30.67;;;;;;;11.81;65.98;101792.11;126652;1102;101975;-80
2021/10/29 09:45:23;;;;;;;58.90;30.33;;;;;;;11.96;65.93;101802.52;126882;1101;101613;-82
2021/10/29 09:48:14;;;;;;;58.40;30.43;;;;;;;12.09;65.59;101798.81;126313;1102;101677;-80
2021/10/29 09:50:52;;;;;;;52.37;30.30;;;;;;;12.21;65.47;101796.76;126245;1105;102192;-80
2021/10/29 09:56:20;;;;;;;55.57;29.80;;;;;;;12.44;65.14;101794.38;126790;1101;101135;-79
2021/10/29 09:58:56;;;;;;;54.13;30.83;;;;;;;12.54;65.35;101798.34;126720;1102;101679;-79
2021/10/29 10:01:27;;;;;;;54.50;28.83;;;;;;;12.62;64.96;101798.72;126295;1102;101228;-79
2021/10/29 10:04:03;;;;;;;55.17;30.03;;;;;;;12.67;64.90;101789.30;126348;1102;102200;-79
2021/10/29 10:06:44;;;;;;;48.77;29.23;;;;;;;12.72;65.29;101791.33;126254;1105;101977;-82
2021/10/29 10:09:29;;;;;;;57.33;30.37;;;;;;;12.80;65.00;101790.80;126346;1101;101782;-80
2021/10/29 10:11:59;;;;;;;56.53;29.80;;;;;;;12.87;64.89;101798.14;126198;1105;102303;-80
2021/10/29 10:14:32;;;;;;;58.60;31.80;;;;;;;12.93;64.86;101787.89;126291;1105;101790;-80
2021/10/29 10:17:06;;;;;;;58.97;31.13;;;;;;;12.99;64.47;101780.28;126264;1105;103537;-79
2021/10/29 10:19:37;;;;;;;56.30;31.30;;;;;;;13.08;64.95;101785.97;126204;1105;101854;-79
2021/10/29 10:22:13;;;;;;;60.17;32.63;;;;;;;13.17;64.78;101780.23;126244;1105;101701;-79
2021/10/29 10:24:44;;;;;;;54.57;31.10;;;;;;;13.27;64.49;101778.91;126268;1105;101761;-79
2021/10/29 10:30:06;;;;;;;63.23;31.37;;;;;;;13.50;63.61;101771.17;126299;1105;101959;-79
2021/10/29 10:43:37;;;;;;;58.07;32.03;;;;;;;13.91;63.68;101762.37;126309;1102;101931;-79
2021/10/29 10:46:17;;;;;;;58.70;32.30;;;;;;;14.01;64.04;101756.66;126502;1102;101711;-79
2021/10/29 10:48:54;;;;;;;61.37;33.20;;;;;;;14.09;63.04;101759.62;126698;1102;102060;-79
2021/10/29 10:51:44;;;;;;;59.40;33.03;;;;;;;14.17;63.52;101763.47;126307;1101;101674;-79
2021/10/29 10:54:28;;;;;;;56.03;32.27;;;;;;;14.24;63.42;101754.05;127197;1101;101179;-81
2021/10/29 10:57:12;;;;;;;57.40;31.90;;;;;;;14.27;63.29;101754.17;127111;1101;102510;-80
2021/10/29 11:05:35;;;;;;;54.60;33.60;;;;;;;14.26;62.77;101748.83;126303;1103;101783;-80
2021/10/29 11:11:21;;;;;;;59.80;33.90;;;;;;;14.30;62.73;101756.05;126374;1101;103068;-80
2021/10/29 11:13:58;;;;;;;54.57;31.23;;;;;;;14.33;61.78;101749.14;126230;1102;101829;-80
2021/10/29 11:16:31;;;;;;;64.67;33.87;;;;;;;14.38;61.66;101741.41;126694;1101;101553;-81
2021/10/29 11:19:11;;;;;;;54.27;32.40;;;;;;;14.44;62.16;101743.41;126593;1102;101628;-81
2021/10/29 11:21:57;;;;;;;52.07;31.53;;;;;;;14.51;61.56;101745.46;126837;1102;101754;-81
2021/10/29 11:24:37;;;;;;;54.70;31.10;;;;;;;14.56;62.28;101744.78;126664;1102;102127;-81
2021/10/29 11:27:18;;;;;;;54.53;31.47;;;;;;;14.61;61.94;101736.18;126682;1101;101615;-80
2021/10/29 11:29:50;;;;;;;55.60;30.77;;;;;;;14.62;61.86;101741.52;126559;1101;101687;-81
2021/10/29 11:32:28;;;;;;;52.97;30.90;;;;;;;14.64;61.24;101737.19;126299;1102;101808;-79
2021/10/29 11:35:03;;;;;;;54.63;31.20;;;;;;;14.69;61.55;101732.08;126759;1101;101653;-80
2021/10/29 11:37:37;;;;;;;55.13;31.00;;;;;;;14.72;60.70;101743.70;126311;1102;102025;-79
2021/10/29 11:40:15;;;;;;;54.50;30.13;;;;;;;14.74;60.74;101733.19;126334;1101;101662;-79
2021/10/29 11:42:57;;;;;;;53.27;30.63;;;;;;;14.78;60.74;101739.48;127072;1101;101809;-80
2021/10/29 11:45:34;;;;;;;55.20;31.10;;;;;;;14.81;61.38;101736.95;126282;1105;112726;-79
2021/10/29 11:48:09;;;;;;;56.57;31.73;;;;;;;14.82;61.44;101736.09;126292;1105;101185;-80
2021/10/29 11:50:41;;;;;;;53.77;29.90;;;;;;;14.83;60.79;101729.97;127090;1101;102049;-79
2021/10/29 11:53:17;;;;;;;51.33;30.93;;;;;;;14.86;61.20;101738.02;126281;1102;101788;-80
2021/10/29 11:55:52;;;;;;;56.70;31.60;;;;;;;14.86;61.10;101738.02;126261;1102;101745;-81
2021/10/29 11:58:35;;;;;;;55.25;30.12;;;;;;;14.84;60.40;101737.07;126332;1102;101825;-80
2021/10/29 12:09:30;;;;;;;55.90;31.93;;;;;;;14.92;60.80;101735.61;126337;1105;101918;-80
2021/10/29 12:12:05;;;;;;;57.03;32.80;;;;;;;14.93;59.91;101734.78;126308;1105;101714;-81
2021/10/29 12:14:39;;;;;;;58.07;32.83;;;;;;;14.95;60.66;101734.83;126287;1105;101650;-82
2021/10/29 12:17:12;;;;;;;51.13;29.70;;;;;;;14.97;60.10;101730.50;126279;1105;102740;-80
2021/10/29 12:19:43;;;;;;;58.17;31.80;;;;;;;15.01;60.18;101730.66;126259;1102;101371;-80
2021/10/29 12:22:27;;;;;;;59.47;31.67;;;;;;;15.01;59.66;101730.66;126337;1102;101755;-80
2021/10/29 12:25:04;;;;;;;57.43;31.50;;;;;;;15.04;59.87;101733.42;126229;1105;101684;-80
2021/10/29 12:27:46;;;;;;;56.20;31.47;;;;;;;15.06;59.62;101733.48;126287;1105;101705;-80
2021/10/29 12:30:26;;;;;;;59.30;32.37;;;;;;;15.04;59.70;101728.14;126269;1105;101928;-82
2021/10/29 12:53:07;;;;;;;51.17;26.63;;;;;;;14.92;59.65;101727.67;126278;1105;101764;-82
2021/10/29 13:04:11;;;;;;;47.83;25.27;;;;;;;14.95;59.01;101734.83;126308;1102;101578;-80
2021/10/29 13:06:44;;;;;;;41.27;23.83;;;;;;;14.91;59.00;101731.16;126276;1105;102060;-82
2021/10/29 13:09:22;;;;;;;42.37;23.00;;;;;;;14.92;59.77;101733.85;126310;1105;101621;-81
2021/10/29 13:12:00;;;;;;;42.13;22.40;;;;;;;14.95;59.01;101730.44;126246;1105;102696;-82
2021/10/29 13:14:35;;;;;;;40.20;23.47;;;;;;;14.98;59.31;101729.66;126258;1105;102098;-82
2021/10/29 13:17:10;;;;;;;47.90;23.17;;;;;;;15.01;59.77;101727.13;125913;1105;101629;-81
2021/10/29 13:20:06;;;;;;;41.35;22.10;;;;;;;14.97;58.60;101722.56;125929;1105;101651;-81
2021/10/29 13:28:22;;;;;;;33.87;20.10;;;;;;;14.72;59.59;101719.92;125862;1108;107611;-81
2021/10/29 13:36:38;;;;;;;39.33;20.97;;;;;;;14.63;58.91;101718.64;125896;1106;101913;-80
2021/10/29 13:50:39;;;;;;;39.43;19.83;;;;;;;14.52;58.60;101721.75;126270;1105;101681;-79
2021/10/29 13:53:19;;;;;;;39.73;20.73;;;;;;;14.48;58.77;101721.57;126260;1105;102719;-82
2021/10/29 13:55:56;;;;;;;35.13;20.40;;;;;;;14.46;59.52;101724.15;126248;1105;101602;-81